createdAt,value
2023-05-22T00:00:00.079Z, 93.4
2023-05-22T00:02:00.093Z, 92.5
2023-05-22T00:04:00.068Z, 92
2023-05-22T00:06:00.065Z, 91.9
2023-05-22T00:08:00.041Z, 91.3
2023-05-22T00:10:00.055Z, 89.6
2023-05-22T00:12:00.044Z, 89.8
2023-05-22T00:14:00.042Z, 89.6
2023-05-22T00:16:00.089Z, 89.4
2023-05-22T00:18:00.067Z, 90.2
2023-05-22T00:20:00.034Z, 92.2
2023-05-22T00:22:00.037Z, 94.1
2023-05-22T00:24:00.040Z, 95.1
2023-05-22T00:26:00.012Z, 95.6
2023-05-22T00:28:00.124Z, 96
2023-05-22T00:30:00.195Z, 95.5
2023-05-22T00:32:00.113Z, 94.6
2023-05-22T00:34:00.191Z, 93.8
2023-05-22T00:36:00.121Z, 94.1
2023-05-22T00:38:00.120Z, 94
2023-05-22T00:40:00.166Z, 92.7
2023-05-22T00:42:00.111Z, 90.9
2023-05-22T00:44:00.110Z, 90.4
2023-05-22T00:46:00.119Z, 91
2023-05-22T00:48:00.172Z, 91.9
2023-05-22T00:50:00.154Z, 91.8
2023-05-22T00:52:00.125Z, 91.2
2023-05-22T00:54:00.159Z, 90.8
2023-05-22T00:56:00.133Z, 90.6
2023-05-22T00:58:00.058Z, 90
2023-05-22T01:00:00.083Z, 90.3
2023-05-22T01:02:00.127Z, 91.4
2023-05-22T01:04:00.218Z, 91.3
2023-05-22T01:06:00.064Z, 90.7
2023-05-22T01:08:00.047Z, 91.1
2023-05-22T01:10:00.042Z, 91.9
2023-05-22T01:12:00.041Z, 92.4
2023-05-22T01:14:00.046Z, 92.7
2023-05-22T01:16:00.150Z, 91.8
2023-05-22T01:18:00.073Z, 91.5
2023-05-22T01:20:00.041Z, 92
2023-05-22T01:22:00.025Z, 92.7
2023-05-22T01:24:00.044Z, 93.7
2023-05-22T01:26:00.006Z, 94.1
2023-05-22T01:28:00.140Z, 95
2023-05-22T01:30:00.147Z, 94.7
2023-05-22T01:32:00.122Z, 96.1
2023-05-22T01:34:00.272Z, 98.1
2023-05-22T01:36:00.136Z, 98.4
2023-05-22T01:38:00.130Z, 98.1
2023-05-22T01:40:00.121Z, 97.6
2023-05-22T01:42:00.117Z, 96.2
2023-05-22T01:44:00.124Z, 95.4
2023-05-22T01:46:00.165Z, 94.3
2023-05-22T01:48:00.173Z, 93.7
2023-05-22T01:50:00.134Z, 92.2
2023-05-22T01:52:00.109Z, 91.9
2023-05-22T01:54:00.178Z, 93
2023-05-22T01:56:00.139Z, 94.1
2023-05-22T01:58:00.083Z, 95.2
2023-05-22T02:00:00.070Z, 95.1
2023-05-22T02:02:00.172Z, 95
2023-05-22T02:04:00.047Z, 93.7
2023-05-22T02:06:00.069Z, 92.7
2023-05-22T02:08:00.053Z, 92.1
2023-05-22T02:10:00.054Z, 91.9
2023-05-22T02:12:00.044Z, 92.1
2023-05-22T02:14:00.062Z, 92.4
2023-05-22T02:16:00.147Z, 92.3
2023-05-22T02:18:00.161Z, 93.1
2023-05-22T02:20:00.047Z, 92.8
2023-05-22T02:22:00.040Z, 93.8
2023-05-22T02:24:00.040Z, 93.5
2023-05-22T02:26:00.046Z, 91.6
2023-05-22T02:28:00.160Z, 91.3
2023-05-22T02:30:00.168Z, 91
2023-05-22T02:32:00.125Z, 90.9
2023-05-22T02:34:00.136Z, 90.2
2023-05-22T02:36:00.152Z, 90.8
2023-05-22T02:38:00.123Z, 91.1
2023-05-22T02:40:00.139Z, 92.4
2023-05-22T02:42:00.142Z, 94
2023-05-22T02:44:00.151Z, 95.8
2023-05-22T02:46:00.133Z, 97.6
2023-05-22T02:48:00.267Z, 98.7
2023-05-22T02:50:00.134Z, 98.3
2023-05-22T02:52:00.132Z, 98
2023-05-22T02:54:00.131Z, 96.4
2023-05-22T02:56:00.140Z, 95.5
2023-05-22T02:58:00.060Z, 94.6
2023-05-22T03:00:00.089Z, 93.7
2023-05-22T03:02:00.179Z, 93
2023-05-22T03:04:00.176Z, 91.7
2023-05-22T03:06:00.072Z, 91.1
2023-05-22T03:08:00.055Z, 89.9
2023-05-22T03:10:00.052Z, 89.4
2023-05-22T03:12:00.043Z, 89.4
2023-05-22T03:14:00.068Z, 89.2
2023-05-22T03:16:00.099Z, 88.8
2023-05-22T03:18:00.088Z, 89.6
2023-05-22T03:20:00.037Z, 91.3
2023-05-22T03:22:00.034Z, 92.8
2023-05-22T03:24:00.051Z, 93.8
2023-05-22T03:26:00.033Z, 94.4
2023-05-22T03:28:00.109Z, 95.1
2023-05-22T03:30:00.117Z, 95.4
2023-05-22T03:32:00.105Z, 94.7
2023-05-22T03:34:00.193Z, 94.4
2023-05-22T03:36:00.139Z, 95
2023-05-22T03:38:00.153Z, 96.3
2023-05-22T03:40:00.153Z, 96.5
2023-05-22T03:42:00.118Z, 95.8
2023-05-22T03:44:00.104Z, 94.9
2023-05-22T03:46:00.181Z, 94.5
2023-05-22T03:48:00.210Z, 94.1
2023-05-22T03:50:00.157Z, 94.2
2023-05-22T03:52:00.120Z, 95.4
2023-05-22T03:54:00.134Z, 96.5
2023-05-22T03:56:00.156Z, 97
2023-05-22T03:58:00.076Z, 98.2
2023-05-22T04:00:00.069Z, 98.9
2023-05-22T04:02:00.119Z, 98
2023-05-22T04:04:00.066Z, 97.2
2023-05-22T04:06:00.072Z, 97.5
2023-05-22T04:08:00.070Z, 97.6
2023-05-22T04:10:00.043Z, 96.7
2023-05-22T04:12:00.044Z, 95.7
2023-05-22T04:14:00.039Z, 94.9
2023-05-22T04:16:00.072Z, 94.5
2023-05-22T04:18:00.085Z, 94
2023-05-22T04:20:00.091Z, 92.6
2023-05-22T04:22:00.040Z, 92.3
2023-05-22T04:24:00.021Z, 92.9
2023-05-22T04:26:00.007Z, 94.1
2023-05-22T04:28:00.114Z, 94.6
2023-05-22T04:30:00.182Z, 95.6
2023-05-22T04:32:00.119Z, 96.5
2023-05-22T04:34:00.362Z, 96.9
2023-05-22T04:36:00.165Z, 96.9
2023-05-22T04:38:00.210Z, 96.9
2023-05-22T04:40:00.176Z, 96.6
2023-05-22T04:42:00.113Z, 95.7
2023-05-22T04:44:00.132Z, 94.5
2023-05-22T04:46:00.104Z, 93.4
2023-05-22T04:48:00.207Z, 92.7
2023-05-22T04:50:00.174Z, 90.8
2023-05-22T04:52:00.127Z, 89.8
2023-05-22T04:54:00.151Z, 88.3
2023-05-22T04:56:00.145Z, 87
2023-05-22T04:58:00.071Z, 86.1
2023-05-22T05:00:00.126Z, 85
2023-05-22T05:02:00.066Z, 83.8
2023-05-22T05:04:00.164Z, 82
2023-05-22T05:06:00.084Z, 80.2
2023-05-22T05:08:00.051Z, 79.5
2023-05-22T05:10:00.081Z, 79.6
2023-05-22T05:12:00.053Z, 79.5
2023-05-22T05:14:00.061Z, 80.9
2023-05-22T05:16:00.060Z, 81.3
2023-05-22T05:18:00.143Z, 79.6
2023-05-22T05:20:00.044Z, 79.6
2023-05-22T05:22:00.034Z, 80
2023-05-22T05:24:00.049Z, 78.4
2023-05-22T05:26:00.014Z, 77.3
2023-05-22T05:28:00.092Z, 76.6
2023-05-22T05:30:00.135Z, 76.5
2023-05-22T05:32:00.171Z, 75.9
2023-05-22T05:34:00.144Z, 75.3
2023-05-22T05:36:00.117Z, 75.8
2023-05-22T05:38:00.103Z, 75.5
2023-05-22T05:40:00.117Z, 74.6
2023-05-22T05:42:00.331Z, 74.1
2023-05-22T05:44:00.162Z, 75.2
2023-05-22T05:46:00.145Z, 76
2023-05-22T05:48:00.158Z, 75.4
2023-05-22T05:50:00.118Z, 75.8
2023-05-22T05:52:00.118Z, 75.6
2023-05-22T05:54:00.173Z, 75.5
2023-05-22T05:56:00.158Z, 74.6
2023-05-22T05:58:00.060Z, 74
2023-05-22T06:00:00.100Z, 74.6
2023-05-22T06:02:00.123Z, 75.1
2023-05-22T06:04:00.143Z, 74.8
2023-05-22T06:06:00.101Z, 73.9
2023-05-22T06:08:00.059Z, 73.6
2023-05-22T06:10:00.048Z, 73
2023-05-22T06:12:00.049Z, 72.6
2023-05-22T06:14:00.045Z, 72.6
2023-05-22T06:16:02.847Z, 73
2023-05-22T06:18:00.113Z, 72.5
2023-05-22T06:20:00.043Z, 71.6
2023-05-22T06:22:00.028Z, 73.2
2023-05-22T06:24:00.045Z, 76.2
2023-05-22T06:26:00.019Z, 77.8
2023-05-22T06:28:00.098Z, 80.3
2023-05-22T06:30:00.173Z, 80.3
2023-05-22T06:32:00.201Z, 79.7
2023-05-22T06:34:00.274Z, 80.4
2023-05-22T06:36:00.132Z, 81.5
2023-05-22T06:38:00.119Z, 82.7
2023-05-22T06:40:00.110Z, 83
2023-05-22T06:42:00.209Z, 82.1
2023-05-22T06:44:00.119Z, 82.1
2023-05-22T06:46:00.222Z, 82.3
2023-05-22T06:48:00.220Z, 80.4
2023-05-22T06:50:00.111Z, 77.2
2023-05-22T06:52:00.206Z, 73.5
2023-05-22T06:54:00.162Z, 71.8
2023-05-22T06:56:00.163Z, 70.4
2023-05-22T06:58:00.103Z, 67.1
2023-05-22T07:00:00.089Z, 68
2023-05-22T07:02:00.065Z, 69.3
2023-05-22T07:04:00.043Z, 69.9
2023-05-22T07:06:00.104Z, 70.6
2023-05-22T07:08:00.055Z, 66.8
2023-05-22T07:10:00.083Z, 67.1
2023-05-22T07:12:00.048Z, 66
2023-05-22T07:14:00.064Z, 66.9
2023-05-22T07:16:00.150Z, 66.3
2023-05-22T07:18:00.149Z, 66.7
2023-05-22T07:20:00.068Z, 68.4
2023-05-22T07:22:00.090Z, 69.5
2023-05-22T07:24:00.150Z, 68
2023-05-22T07:26:00.067Z, 66.1
2023-05-22T07:28:00.148Z, 66.8
2023-05-22T07:30:00.129Z, 66.4
2023-05-22T07:32:00.129Z, 66.6
2023-05-22T07:34:00.123Z, 64.9
2023-05-22T07:36:00.110Z, 64
2023-05-22T07:38:00.129Z, 64.2
2023-05-22T07:40:00.142Z, 63.5
2023-05-22T07:42:01.518Z, 63.8
2023-05-22T07:44:00.117Z, 65.5
2023-05-22T07:46:00.194Z, 64
2023-05-22T07:48:00.206Z, 63.4
2023-05-22T07:50:00.104Z, 63.5
2023-05-22T07:52:00.132Z, 62.9
2023-05-22T07:54:00.572Z, 63.7
2023-05-22T07:56:00.123Z, 63.1
2023-05-22T07:58:00.056Z, 62.1
2023-05-22T08:00:00.061Z, 62.5
2023-05-22T08:02:00.120Z, 64.7
2023-05-22T08:04:00.224Z, 65.4
2023-05-22T08:06:00.073Z, 66.4
2023-05-22T08:08:00.076Z, 64.7
2023-05-22T08:10:00.033Z, 65
2023-05-22T08:12:00.033Z, 66.2
2023-05-22T08:14:00.049Z, 65.1
2023-05-22T08:16:01.379Z, 63.6
2023-05-22T08:18:00.073Z, 64.2
2023-05-22T08:20:00.244Z, 64.6
2023-05-22T08:22:00.058Z, 63.4
2023-05-22T08:24:00.068Z, 65.2
2023-05-22T08:26:00.036Z, 65.7
2023-05-22T08:28:00.085Z, 63.6
2023-05-22T08:30:00.161Z, 62.4
2023-05-22T08:32:00.241Z, 63.1
2023-05-22T08:34:00.104Z, 60.9
2023-05-22T08:36:00.101Z, 58.7
2023-05-22T08:38:00.133Z, 56.6
2023-05-22T08:40:00.146Z, 57.5
2023-05-22T08:42:00.134Z, 59.2
2023-05-22T08:44:00.153Z, 59.3
2023-05-22T08:46:00.091Z, 56.4
2023-05-22T08:48:00.235Z, 57.3
2023-05-22T08:50:00.169Z, 58.6
2023-05-22T08:52:00.157Z, 60.2
2023-05-22T08:54:00.163Z, 59.4
2023-05-22T08:56:00.130Z, 58.4
2023-05-22T08:58:00.090Z, 59.1
2023-05-22T09:00:00.093Z, 58
2023-05-22T09:02:00.055Z, 58.1
2023-05-22T09:04:00.084Z, 58.8
2023-05-22T09:06:00.063Z, 56.3
2023-05-22T09:08:08.412Z, 56.5
2023-05-22T09:10:00.090Z, 58.7
2023-05-22T09:12:00.054Z, 58.2
2023-05-22T09:14:00.041Z, 56.6
2023-05-22T09:16:00.082Z, 58
2023-05-22T09:18:00.106Z, 54.5
2023-05-22T09:20:00.078Z, 54
2023-05-22T09:22:00.070Z, 55.7
2023-05-22T09:24:00.143Z, 57.4
2023-05-22T09:26:00.068Z, 59.7
2023-05-22T09:28:00.108Z, 58.8
2023-05-22T09:30:00.107Z, 56.3
2023-05-22T09:32:00.128Z, 54.6
2023-05-22T09:34:00.114Z, 53.3
2023-05-22T09:36:00.109Z, 54.2
2023-05-22T09:38:00.150Z, 53.9
2023-05-22T09:40:00.133Z, 54.6
2023-05-22T09:42:00.124Z, 54.7
2023-05-22T09:44:01.771Z, 53.2
2023-05-22T09:46:00.131Z, 53.1
2023-05-22T09:48:00.246Z, 52.9
2023-05-22T09:50:00.139Z, 55.1
2023-05-22T09:52:00.133Z, 56
2023-05-22T09:54:00.114Z, 55.1
2023-05-22T09:56:00.276Z, 54.7
2023-05-22T09:58:00.066Z, 54.1
2023-05-22T10:00:00.136Z, 54
2023-05-22T10:02:00.115Z, 55.4
2023-05-22T10:04:00.091Z, 56.1
2023-05-22T10:06:00.092Z, 56.4
2023-05-22T10:08:00.065Z, 55.1
2023-05-22T10:10:00.057Z, 55.6
2023-05-22T10:12:00.103Z, 55.1
2023-05-22T10:14:00.042Z, 53.9
2023-05-22T10:16:00.185Z, 51.5
2023-05-22T10:18:00.136Z, 52.6
2023-05-22T10:20:00.056Z, 51.8
2023-05-22T10:22:00.048Z, 52.3
2023-05-22T10:24:00.049Z, 52.7
2023-05-22T10:26:00.029Z, 56.1
2023-05-22T10:28:00.115Z, 55.8
2023-05-22T10:30:00.177Z, 56.1
2023-05-22T10:32:00.113Z, 57.1
2023-05-22T10:34:00.225Z, 55.9
2023-05-22T10:36:00.133Z, 55.8
2023-05-22T10:38:00.137Z, 56.7
2023-05-22T10:40:00.197Z, 57.5
2023-05-22T10:42:00.154Z, 54.9
2023-05-22T10:44:00.147Z, 55.2
2023-05-22T10:46:00.154Z, 56.6
2023-05-22T10:48:00.161Z, 55.7
2023-05-22T10:50:00.170Z, 55.4
2023-05-22T10:52:00.130Z, 57.2
2023-05-22T10:54:00.134Z, 57.1
2023-05-22T10:56:00.110Z, 55.5
2023-05-22T10:58:00.078Z, 56
2023-05-22T11:00:00.150Z, 58.2
2023-05-22T11:02:00.105Z, 57
2023-05-22T11:04:00.057Z, 58.1
2023-05-22T11:06:00.083Z, 56.1
2023-05-22T11:08:00.059Z, 55.8
2023-05-22T11:10:00.067Z, 53.4
2023-05-22T11:12:00.041Z, 52.8
2023-05-22T11:14:00.067Z, 52.8
2023-05-22T11:16:00.041Z, 51.8
2023-05-22T11:18:00.154Z, 52.8
2023-05-22T11:20:00.129Z, 53.3
2023-05-22T11:22:00.050Z, 54.3
2023-05-22T11:24:00.069Z, 54.1
2023-05-22T11:26:00.029Z, 51.8
2023-05-22T11:28:00.116Z, 51.5
2023-05-22T11:30:00.178Z, 50.8
2023-05-22T11:32:00.136Z, 51.3
2023-05-22T11:34:00.140Z, 52.3
2023-05-22T11:36:00.143Z, 54
2023-05-22T11:38:00.132Z, 50.9
2023-05-22T11:40:00.167Z, 50.5
2023-05-22T11:42:00.158Z, 50.7
2023-05-22T11:44:00.141Z, 51.8
2023-05-22T11:46:00.182Z, 48.5
2023-05-22T11:48:00.166Z, 49.3
2023-05-22T11:50:00.125Z, 52.3
2023-05-22T11:52:00.135Z, 49.7
2023-05-22T11:54:00.126Z, 52
2023-05-22T11:56:00.149Z, 51
2023-05-22T11:58:00.070Z, 49.7
2023-05-22T12:00:00.090Z, 50.7
2023-05-22T12:02:00.049Z, 52.2
2023-05-22T12:04:00.254Z, 52.4
2023-05-22T12:06:00.081Z, 49.6
2023-05-22T12:08:00.053Z, 49.8
2023-05-22T12:10:00.054Z, 52.5
2023-05-22T12:12:00.040Z, 55.9
2023-05-22T12:14:00.026Z, 53
2023-05-22T12:16:00.114Z, 51.6
2023-05-22T12:18:00.095Z, 50.4
2023-05-22T12:20:00.050Z, 48.4
2023-05-22T12:22:00.041Z, 46.9
2023-05-22T12:24:00.043Z, 46.3
2023-05-22T12:26:00.046Z, 45.8
2023-05-22T12:28:00.140Z, 44.8
2023-05-22T12:30:00.162Z, 47.7
2023-05-22T12:32:00.193Z, 47.3
2023-05-22T12:34:00.134Z, 48.6
2023-05-22T12:36:00.106Z, 47.7
2023-05-22T12:38:00.127Z, 45.8
2023-05-22T12:40:00.159Z, 44.1
2023-05-22T12:42:00.144Z, 43.9
2023-05-22T12:44:00.127Z, 47.8
2023-05-22T12:46:02.470Z, 48.6
2023-05-22T12:48:00.139Z, 48.7
2023-05-22T12:50:00.206Z, 50.1
2023-05-22T12:52:00.135Z, 52.2
2023-05-22T12:54:00.172Z, 51.9
2023-05-22T12:56:00.121Z, 51.8
2023-05-22T12:58:00.063Z, 51.5
2023-05-22T13:00:00.166Z, 51.1
2023-05-22T13:02:00.149Z, 50.2
2023-05-22T13:04:00.050Z, 50.2
2023-05-22T13:06:00.078Z, 52
2023-05-22T13:08:00.052Z, 51.6
2023-05-22T13:10:00.048Z, 52.1
2023-05-22T13:12:00.174Z, 51.5
2023-05-22T13:14:00.048Z, 50.9
2023-05-22T13:16:00.129Z, 50.3
2023-05-22T13:18:00.154Z, 50.5
2023-05-22T13:20:00.044Z, 50.1
2023-05-22T13:22:00.049Z, 48.7
2023-05-22T13:24:00.050Z, 48.8
2023-05-22T13:26:00.052Z, 47.7
2023-05-22T13:28:00.154Z, 48.2
2023-05-22T13:30:00.159Z, 48.5
2023-05-22T13:32:00.128Z, 49.6
2023-05-22T13:34:02.947Z, 51.4
2023-05-22T13:36:00.097Z, 52.1
2023-05-22T13:38:00.125Z, 50.9
2023-05-22T13:40:00.128Z, 49.7
2023-05-22T13:42:00.141Z, 50.3
2023-05-22T13:44:00.120Z, 50.8
2023-05-22T13:46:00.111Z, 49.1
2023-05-22T13:48:00.185Z, 47.9
2023-05-22T13:50:00.183Z, 47.6
2023-05-22T13:52:00.094Z, 47.9
2023-05-22T13:54:00.172Z, 47.1
2023-05-22T13:56:00.121Z, 47.9
2023-05-22T13:58:00.076Z, 48.4
2023-05-22T14:00:00.083Z, 49.6
2023-05-22T14:02:00.105Z, 50.7
2023-05-22T14:04:00.065Z, 51
2023-05-22T14:06:00.107Z, 51.3
2023-05-22T14:08:00.058Z, 52.7
2023-05-22T14:10:01.533Z, 52.7
2023-05-22T14:12:00.116Z, 52.5
2023-05-22T14:14:00.034Z, 53.8
2023-05-22T14:16:00.042Z, 53.6
2023-05-22T14:18:00.137Z, 53.1
2023-05-22T14:20:00.114Z, 54
2023-05-22T14:22:00.044Z, 55.2
2023-05-22T14:24:00.043Z, 56.4
2023-05-22T14:26:00.042Z, 56.5
2023-05-22T14:28:00.147Z, 55.8
2023-05-22T14:30:00.164Z, 56.3
2023-05-22T14:32:00.133Z, 56.4
2023-05-22T14:34:00.113Z, 56.2
2023-05-22T14:36:00.135Z, 55.3
2023-05-22T14:38:00.098Z, 55.1
2023-05-22T14:40:00.114Z, 54.5
2023-05-22T14:42:00.097Z, 55.6
2023-05-22T14:44:00.141Z, 55.4
2023-05-22T14:46:00.160Z, 55.1
2023-05-22T14:48:00.260Z, 53.6
2023-05-22T14:50:14.855Z, 54.5
2023-05-22T14:52:00.121Z, 55.9
2023-05-22T14:54:00.141Z, 55.4
2023-05-22T14:56:00.121Z, 54.8
2023-05-22T14:58:00.059Z, 55.8
2023-05-22T15:00:00.095Z, 55.2
2023-05-22T15:02:00.175Z, 55.6
2023-05-22T15:04:00.059Z, 56.2
2023-05-22T15:06:00.079Z, 56.2
2023-05-22T15:08:00.066Z, 56.6
2023-05-22T15:10:00.054Z, 55.7
2023-05-22T15:12:00.166Z, 55.3
2023-05-22T15:14:00.064Z, 55.8
2023-05-22T15:16:00.114Z, 55.9
2023-05-22T15:18:00.191Z, 56.3
2023-05-22T15:20:00.039Z, 55.8
2023-05-22T15:22:08.832Z, 56.1
2023-05-22T15:24:00.054Z, 56.8
2023-05-22T15:26:00.036Z, 57.7
2023-05-22T15:28:00.128Z, 58.4
2023-05-22T15:30:00.158Z, 56.9
2023-05-22T15:32:00.136Z, 58.5
2023-05-22T15:34:00.136Z, 58.4
2023-05-22T15:36:00.139Z, 58.2
2023-05-22T15:38:00.137Z, 58.5
2023-05-22T15:40:00.139Z, 58.8
2023-05-22T15:42:06.382Z, 60.5
2023-05-22T15:44:00.100Z, 61.6
2023-05-22T15:46:00.203Z, 60.7
2023-05-22T15:48:00.204Z, 61.3
2023-05-22T15:50:00.145Z, 61.1
2023-05-22T15:52:00.127Z, 61.7
2023-05-22T15:54:00.165Z, 63.3
2023-05-22T15:56:00.172Z, 63.3
2023-05-22T15:58:00.057Z, 62.4
2023-05-22T16:00:00.106Z, 62.7
2023-05-22T16:02:00.064Z, 63.2
2023-05-22T16:04:00.133Z, 63.5
2023-05-22T16:06:00.071Z, 64.4
2023-05-22T16:08:00.042Z, 64.4
2023-05-22T16:10:00.080Z, 64.5
2023-05-22T16:12:00.048Z, 64.6
2023-05-22T16:14:00.050Z, 64.2
2023-05-22T16:16:00.150Z, 65.1
2023-05-22T16:18:00.122Z, 65.2
2023-05-22T16:20:00.075Z, 65.4
2023-05-22T16:22:00.053Z, 65.8
2023-05-22T16:24:00.079Z, 65.9
2023-05-22T16:26:00.117Z, 65.9
2023-05-22T16:28:00.131Z, 66.3
2023-05-22T16:30:00.158Z, 67.1
2023-05-22T16:32:00.227Z, 66.8
2023-05-22T16:34:00.117Z, 67.2
2023-05-22T16:36:00.137Z, 68.1
2023-05-22T16:38:00.117Z, 66.8
2023-05-22T16:40:00.150Z, 68.4
2023-05-22T16:42:00.139Z, 68.1
2023-05-22T16:44:00.180Z, 68.1
2023-05-22T16:46:00.158Z, 68.4
2023-05-22T16:48:00.210Z, 69.3
2023-05-22T16:50:00.204Z, 69.6
2023-05-22T16:52:00.115Z, 69.8
2023-05-22T16:54:00.102Z, 71.3
2023-05-22T16:56:00.117Z, 71.6
2023-05-22T16:58:00.134Z, 71.8
2023-05-22T17:00:00.119Z, 71.2
2023-05-22T17:02:00.059Z, 70.8
2023-05-22T17:04:00.144Z, 71.1
2023-05-22T17:06:00.077Z, 70.5
2023-05-22T17:08:00.061Z, 70.1
2023-05-22T17:10:00.219Z, 69.8
2023-05-22T17:12:00.060Z, 70.2
2023-05-22T17:14:00.040Z, 70.3
2023-05-22T17:16:00.087Z, 70.7
2023-05-22T17:18:00.176Z, 70.8
2023-05-22T17:20:00.197Z, 70.5
2023-05-22T17:22:00.049Z, 70.1
2023-05-22T17:24:00.052Z, 70.4
2023-05-22T17:26:00.046Z, 71.1
2023-05-22T17:28:00.111Z, 70.7
2023-05-22T17:30:00.236Z, 70.8
2023-05-22T17:32:00.183Z, 71.4
2023-05-22T17:34:00.123Z, 71.8
2023-05-22T17:36:00.132Z, 72
2023-05-22T17:38:00.144Z, 72.3
2023-05-22T17:40:00.203Z, 72.1
2023-05-22T17:42:00.613Z, 72.5
2023-05-22T17:44:00.120Z, 72
2023-05-22T17:46:00.121Z, 72.3
2023-05-22T17:48:00.198Z, 71.4
2023-05-22T17:50:00.148Z, 71.8
2023-05-22T17:52:00.148Z, 71.9
2023-05-22T17:54:00.155Z, 71.4
2023-05-22T17:56:00.105Z, 72.1
2023-05-22T17:58:00.056Z, 72.5
2023-05-22T18:00:00.085Z, 72.3
2023-05-22T18:02:00.190Z, 72.1
2023-05-22T18:04:00.245Z, 71.9
2023-05-22T18:06:00.097Z, 72.1
2023-05-22T18:08:00.066Z, 71.9
2023-05-22T18:10:00.073Z, 71.7
2023-05-22T18:12:00.051Z, 72
2023-05-22T18:14:00.067Z, 72
2023-05-22T18:16:00.091Z, 72.2
2023-05-22T18:18:00.184Z, 72.3
2023-05-22T18:20:00.058Z, 73
2023-05-22T18:22:00.041Z, 73.4
2023-05-22T18:24:00.051Z, 73.7
2023-05-22T18:26:00.035Z, 73.6
2023-05-22T18:28:00.118Z, 73.8
2023-05-22T18:30:00.125Z, 74
2023-05-22T18:32:00.199Z, 74.2
2023-05-22T18:34:00.192Z, 74.4
2023-05-22T18:36:00.129Z, 74.3
2023-05-22T18:38:00.152Z, 74.6
2023-05-22T18:40:00.137Z, 74.9
2023-05-22T18:42:00.160Z, 75.2
2023-05-22T18:44:00.095Z, 75.4
2023-05-22T18:46:00.134Z, 76.2
2023-05-22T18:48:00.180Z, 76.7
2023-05-22T18:50:00.182Z, 76.9
2023-05-22T18:52:00.131Z, 77.4
2023-05-22T18:54:00.096Z, 77.9
2023-05-22T18:56:00.128Z, 78
2023-05-22T18:58:00.081Z, 77.8
2023-05-22T19:00:00.129Z, 78.2
2023-05-22T19:02:00.063Z, 78.4
2023-05-22T19:04:00.069Z, 78.3
2023-05-22T19:06:00.065Z, 78.7
2023-05-22T19:08:00.056Z, 78.7
2023-05-22T19:10:00.063Z, 78.5
2023-05-22T19:12:00.070Z, 78.8
2023-05-22T19:14:00.043Z, 78.6
2023-05-22T19:16:00.079Z, 79.2
2023-05-22T19:18:00.202Z, 79.8
2023-05-22T19:20:00.098Z, 80.1
2023-05-22T19:22:00.079Z, 80.3
2023-05-22T19:24:00.049Z, 80.6
2023-05-22T19:26:00.041Z, 81
2023-05-22T19:28:00.105Z, 81.2
2023-05-22T19:30:00.174Z, 81.5
2023-05-22T19:32:00.140Z, 81.3
2023-05-22T19:34:00.164Z, 81.6
2023-05-22T19:36:00.137Z, 81.8
2023-05-22T19:38:00.121Z, 81.7
2023-05-22T19:40:00.188Z, 82.3
2023-05-22T19:42:00.153Z, 82.9
2023-05-22T19:44:00.139Z, 83.4
2023-05-22T19:46:00.216Z, 83.6
2023-05-22T19:48:00.207Z, 83.5
2023-05-22T19:50:00.145Z, 82.7
2023-05-22T19:52:00.125Z, 82.4
2023-05-22T19:54:00.115Z, 82.9
2023-05-22T19:56:00.121Z, 83.2
2023-05-22T19:58:00.071Z, 83.4
2023-05-22T20:00:00.114Z, 83.4
2023-05-22T20:02:00.091Z, 83.2
2023-05-22T20:06:00.371Z, 82.8
2023-05-22T20:08:00.164Z, 82.6
2023-05-22T20:10:00.148Z, 82.6
2023-05-22T20:12:00.139Z, 82.7
2023-05-22T20:14:00.109Z, 82.7
2023-05-22T20:16:00.118Z, 82.5
2023-05-22T20:18:00.153Z, 82.9
2023-05-22T20:20:00.149Z, 82.8
2023-05-22T20:22:00.100Z, 82.8
2023-05-22T20:24:00.098Z, 83.2
2023-05-22T20:26:00.095Z, 83.4
2023-05-22T20:28:00.102Z, 83.6
2023-05-22T20:30:00.507Z, 83.6
2023-05-22T20:32:00.166Z, 83.4
2023-05-22T20:34:00.077Z, 83.5
2023-05-22T20:36:00.104Z, 82.7
2023-05-22T20:38:00.116Z, 82.3
2023-05-22T20:40:00.136Z, 82.3
2023-05-22T20:42:00.077Z, 83.5
2023-05-22T20:44:00.095Z, 83.5
2023-05-22T20:46:00.100Z, 83.6
2023-05-22T20:48:00.147Z, 83.8
2023-05-22T20:50:00.115Z, 84.6
2023-05-22T20:52:00.095Z, 84.5
2023-05-22T20:54:00.193Z, 84.8
2023-05-22T20:56:00.096Z, 84.9
2023-05-22T20:58:00.087Z, 85.4
2023-05-22T21:00:00.561Z, 85.4
2023-05-22T21:02:00.155Z, 85.4
2023-05-22T21:04:00.137Z, 85.6
2023-05-22T21:06:00.158Z, 85.7
2023-05-22T21:08:00.118Z, 85.4
2023-05-22T21:10:00.131Z, 85.7
2023-05-22T21:12:00.131Z, 85.4
2023-05-22T21:14:00.109Z, 85.8
2023-05-22T21:16:00.086Z, 85.9
2023-05-22T21:18:00.157Z, 85.4
2023-05-22T21:20:00.140Z, 85.1
2023-05-22T21:22:00.125Z, 85.7
2023-05-22T21:24:00.161Z, 85.9
2023-05-22T21:26:00.073Z, 86.3
2023-05-22T21:28:00.095Z, 86.6
2023-05-22T21:30:00.182Z, 86.5
2023-05-22T21:32:00.174Z, 86.8
2023-05-22T21:34:00.076Z, 87
2023-05-22T21:36:00.104Z, 86.4
2023-05-22T21:38:00.124Z, 85.9
2023-05-22T21:40:00.180Z, 85.6
2023-05-22T21:42:00.106Z, 86.2
2023-05-22T21:44:00.080Z, 86.7
2023-05-22T21:46:00.096Z, 87.3
2023-05-22T21:48:00.116Z, 88
2023-05-22T21:50:00.074Z, 88.5
2023-05-22T21:52:00.085Z, 89
2023-05-22T21:54:00.113Z, 89.5
2023-05-22T21:56:00.074Z, 90.4
2023-05-22T21:58:00.081Z, 90.7
2023-05-22T22:00:00.102Z, 91.5
2023-05-22T22:02:00.156Z, 92.3
2023-05-22T22:04:00.162Z, 92.8
2023-05-22T22:06:00.146Z, 93.5
2023-05-22T22:08:00.070Z, 93.8
2023-05-22T22:10:00.095Z, 94.1
2023-05-22T22:12:00.109Z, 94
2023-05-22T22:14:00.086Z, 93.9
2023-05-22T22:16:00.116Z, 93.8
2023-05-22T22:18:00.166Z, 93.9
2023-05-22T22:20:00.197Z, 93.7
2023-05-22T22:22:00.069Z, 93.5
2023-05-22T22:24:00.111Z, 93.1
2023-05-22T22:26:00.071Z, 92.7
2023-05-22T22:28:00.087Z, 92.1
2023-05-22T22:30:00.148Z, 91.6
2023-05-22T22:32:00.145Z, 91.3
2023-05-22T22:34:00.090Z, 91
2023-05-22T22:36:00.116Z, 90.8
2023-05-22T22:38:00.125Z, 90.4
2023-05-22T22:40:00.073Z, 90.5
2023-05-22T22:42:00.110Z, 90.4
2023-05-22T22:44:00.096Z, 90.2
2023-05-22T22:46:00.155Z, 90.4
2023-05-22T22:48:00.166Z, 90.6
2023-05-22T22:50:00.082Z, 90.3
2023-05-22T22:52:00.096Z, 90.4
2023-05-22T22:54:00.155Z, 90.6
2023-05-22T22:56:00.093Z, 90.6
2023-05-22T22:58:00.081Z, 90.5
2023-05-22T23:00:00.116Z, 90.6
2023-05-22T23:02:00.134Z, 90.5
2023-05-22T23:04:00.161Z, 90.8
2023-05-22T23:06:00.121Z, 90.6
2023-05-22T23:08:00.089Z, 90.7
2023-05-22T23:10:00.086Z, 90.8
2023-05-22T23:12:00.108Z, 90.9
2023-05-22T23:14:00.086Z, 91
2023-05-22T23:16:00.186Z, 91.3
2023-05-22T23:18:00.152Z, 91.4
2023-05-22T23:20:00.104Z, 91.5
2023-05-22T23:22:00.115Z, 91.4
2023-05-22T23:24:00.111Z, 91.6
2023-05-22T23:26:00.100Z, 91.7
2023-05-22T23:28:00.072Z, 92.2
2023-05-22T23:30:00.138Z, 92.4
2023-05-22T23:32:00.320Z, 92.5
2023-05-22T23:34:00.101Z, 92.9
2023-05-22T23:36:00.121Z, 93.1
2023-05-22T23:38:00.071Z, 93.2
2023-05-22T23:40:00.186Z, 93.2
2023-05-22T23:42:00.093Z, 93.2
2023-05-22T23:44:00.086Z, 92.6
2023-05-22T23:46:00.114Z, 92.4
2023-05-22T23:48:00.182Z, 91.6
2023-05-22T23:50:00.144Z, 90.9
2023-05-22T23:52:00.101Z, 90.7
2023-05-22T23:54:00.094Z, 91
2023-05-22T23:56:00.101Z, 91.2
2023-05-22T23:58:00.102Z, 91.6
